createdAt,value
2022-11-03T00:00:10.032Z,99896.19
2022-11-03T00:02:41.347Z,99894.25
2022-11-03T00:05:29.616Z,99903.81
2022-11-03T00:07:57.988Z,99911.16
2022-11-03T00:10:25.942Z,99913.09
2022-11-03T00:12:54.527Z,99839.66
2022-11-03T00:15:23.236Z,99842.78
2022-11-03T00:17:51.195Z,99913.94
2022-11-03T00:20:20.281Z,99922.63
2022-11-03T00:22:48.337Z,99884.16
2022-11-03T00:25:16.470Z,99848.91
2022-11-03T00:27:44.381Z,99918.47
2022-11-03T00:30:13.233Z,99919.31
2022-11-03T00:32:41.052Z,99896.56
2022-11-03T00:35:09.162Z,99929.59
2022-11-03T00:37:37.073Z,99843.97
2022-11-03T00:40:05.667Z,99916.13
2022-11-03T00:42:35.243Z,99930.06
2022-11-03T00:45:03.549Z,99930.53
2022-11-03T00:47:31.497Z,99919.31
2022-11-03T00:49:59.274Z,99930.19
2022-11-03T00:52:27.392Z,99925.84
2022-11-03T00:54:55.598Z,99860.44
2022-11-03T00:57:23.497Z,99918.13
2022-11-03T00:59:51.417Z,99922.09
2022-11-03T01:02:19.430Z,99919.72
2022-11-03T01:05:06.596Z,99933.56
2022-11-03T01:07:35.144Z,99890.00
2022-11-03T01:10:04.314Z,99929.38
2022-11-03T01:12:32.401Z,99926.81
2022-11-03T01:15:00.370Z,99930.44
2022-11-03T01:17:29.258Z,99929.97
2022-11-03T01:19:57.137Z,99887.94
2022-11-03T01:22:25.182Z,99914.91
2022-11-03T01:24:53.079Z,99919.00
2022-11-03T01:27:23.208Z,99926.81
2022-11-03T01:29:51.300Z,99871.09
2022-11-03T01:32:19.189Z,99870.97
2022-11-03T01:34:47.107Z,99927.31
2022-11-03T01:37:15.285Z,99846.53
2022-11-03T01:39:43.115Z,99923.72
2022-11-03T01:42:14.993Z,99869.91
2022-11-03T01:44:49.360Z,99917.59
2022-11-03T01:47:27.943Z,99923.00
2022-11-03T01:50:08.711Z,99921.06
2022-11-03T01:52:53.949Z,99909.28
2022-11-03T01:55:30.497Z,99917.44
2022-11-03T01:58:25.585Z,99930.53
2022-11-03T02:00:59.486Z,99912.72
2022-11-03T02:03:32.947Z,99913.66
2022-11-03T02:06:02.920Z,99913.41
2022-11-03T02:08:54.030Z,99913.25
2022-11-03T02:11:41.057Z,99913.97
2022-11-03T02:14:16.211Z,99937.31
2022-11-03T02:16:54.848Z,99924.81
2022-11-03T02:19:46.271Z,99881.91
2022-11-03T02:22:35.104Z,99935.41
2022-11-03T02:25:52.688Z,99935.03
2022-11-03T02:28:24.909Z,99940.50
2022-11-03T02:31:21.465Z,99944.44
2022-11-03T02:34:30.731Z,99959.06
2022-11-03T02:37:25.909Z,99940.63
2022-11-03T02:40:17.620Z,99959.53
2022-11-03T02:42:52.270Z,99922.38
2022-11-03T02:45:25.211Z,99966.72
2022-11-03T02:47:59.136Z,99967.59
2022-11-03T02:50:29.721Z,99927.25
2022-11-03T02:52:58.758Z,99974.28
2022-11-03T02:55:51.847Z,99976.06
2022-11-03T02:59:05.109Z,99974.81
2022-11-03T03:01:48.902Z,99932.09
2022-11-03T03:04:40.163Z,99984.44
2022-11-03T03:07:15.928Z,99983.72
2022-11-03T03:10:22.034Z,99995.97
2022-11-03T03:12:54.319Z,99939.41
2022-11-03T03:15:36.827Z,99994.91
2022-11-03T03:18:24.779Z,99956.16
2022-11-03T03:20:59.765Z,99938.94
2022-11-03T03:23:36.000Z,99996.94
2022-11-03T03:26:10.981Z,100003.16
2022-11-03T03:28:56.097Z,99957.03
2022-11-03T03:31:28.022Z,99983.47
2022-11-03T03:34:04.654Z,99989.13
2022-11-03T03:36:40.650Z,99934.50
2022-11-03T03:39:13.966Z,99993.28
2022-11-03T03:41:43.677Z,99991.19
2022-11-03T03:44:14.204Z,99999.66
2022-11-03T03:46:52.188Z,99943.84
2022-11-03T03:49:20.786Z,99990.97
2022-11-03T03:51:49.994Z,99943.34
2022-11-03T03:54:17.969Z,99984.97
2022-11-03T03:57:00.301Z,99975.84
2022-11-03T03:59:28.285Z,99991.81
2022-11-03T04:01:56.541Z,99950.53
2022-11-03T04:04:24.546Z,99975.53
2022-11-03T04:07:12.359Z,99932.97
2022-11-03T04:09:40.475Z,99998.78
2022-11-03T04:12:28.167Z,100002.59
2022-11-03T04:15:15.730Z,100003.19
2022-11-03T04:18:07.849Z,99929.97
2022-11-03T04:20:54.993Z,99953.00
2022-11-03T04:23:23.141Z,99987.31
2022-11-03T04:25:56.673Z,100015.94
2022-11-03T04:28:27.373Z,99970.47
2022-11-03T04:30:59.678Z,100015.72
2022-11-03T04:33:29.745Z,99980.13
2022-11-03T04:35:59.814Z,100027.41
2022-11-03T04:38:29.478Z,100023.78
2022-11-03T04:40:59.304Z,100019.47
2022-11-03T04:43:35.951Z,99950.22
2022-11-03T04:46:04.359Z,100027.19
2022-11-03T04:48:34.505Z,99988.28
2022-11-03T04:51:18.517Z,99978.53
2022-11-03T04:53:56.467Z,100024.13
2022-11-03T04:56:25.977Z,100008.06
2022-11-03T04:58:54.704Z,99980.66
2022-11-03T05:01:24.842Z,100035.22
2022-11-03T05:03:55.087Z,100035.66
2022-11-03T05:06:28.169Z,99993.06
2022-11-03T05:09:07.993Z,100012.41
2022-11-03T05:11:42.718Z,100043.28
2022-11-03T05:14:32.425Z,100048.66
2022-11-03T05:17:03.058Z,100041.81
2022-11-03T05:19:41.793Z,100051.19
2022-11-03T05:22:20.869Z,100051.59
2022-11-03T05:24:56.096Z,100055.91
2022-11-03T05:27:25.118Z,100057.03
2022-11-03T05:29:59.592Z,100059.78
2022-11-03T05:32:33.189Z,100051.31
2022-11-03T05:35:01.402Z,100058.25
2022-11-03T05:37:35.630Z,100072.06
2022-11-03T05:40:27.238Z,100061.53
2022-11-03T05:43:01.199Z,100072.25
2022-11-03T05:45:37.569Z,100037.06
2022-11-03T05:48:37.602Z,100076.72
2022-11-03T05:51:38.565Z,100076.13
2022-11-03T05:54:19.962Z,100035.97
2022-11-03T05:56:51.363Z,100074.16
2022-11-03T05:59:28.367Z,100078.09
2022-11-03T06:02:00.817Z,100073.88
2022-11-03T06:04:37.538Z,100073.88
2022-11-03T06:07:31.281Z,100026.78
2022-11-03T06:10:00.379Z,100076.88
2022-11-03T06:12:30.695Z,100081.22
2022-11-03T06:14:58.663Z,100077.88
2022-11-03T06:17:28.819Z,100047.75
2022-11-03T06:19:59.564Z,100079.56
2022-11-03T06:22:38.377Z,100089.66
2022-11-03T06:25:33.307Z,100074.97
2022-11-03T06:28:05.501Z,100080.69
2022-11-03T06:30:39.361Z,100086.44
2022-11-03T06:33:27.896Z,100085.41
2022-11-03T06:36:11.171Z,100040.47
2022-11-03T06:38:40.060Z,100051.13
2022-11-03T06:41:28.116Z,100090.47
2022-11-03T06:43:58.531Z,100078.22
2022-11-03T06:46:30.548Z,100085.00
2022-11-03T06:49:01.419Z,100082.34
2022-11-03T06:51:31.208Z,100081.53
2022-11-03T06:54:01.135Z,100072.25
2022-11-03T06:56:35.367Z,100046.06
2022-11-03T06:59:03.605Z,100064.00
2022-11-03T07:01:36.221Z,100068.84
2022-11-03T07:04:23.948Z,100064.59
2022-11-03T07:06:53.765Z,100056.84
2022-11-03T07:09:29.060Z,100019.13
2022-11-03T07:12:00.593Z,100036.25
2022-11-03T07:14:31.831Z,100048.59
2022-11-03T07:17:05.030Z,100057.28
2022-11-03T07:19:38.089Z,100051.81
2022-11-03T07:22:27.203Z,100005.09
2022-11-03T07:25:00.717Z,100047.66
2022-11-03T07:27:39.200Z,100039.31
2022-11-03T07:30:24.173Z,100031.31
2022-11-03T07:33:26.994Z,100000.78
2022-11-03T07:36:15.037Z,100019.88
2022-11-03T07:38:48.144Z,100008.66
2022-11-03T07:41:29.553Z,100007.94
2022-11-03T07:44:02.919Z,100007.00
2022-11-03T07:46:30.938Z,100010.75
2022-11-03T07:49:02.946Z,100002.22
2022-11-03T07:51:31.975Z,99952.84
2022-11-03T07:54:30.238Z,99991.38
2022-11-03T07:57:01.288Z,99992.25
2022-11-03T07:59:35.492Z,99957.34
2022-11-03T08:02:27.355Z,99991.34
2022-11-03T08:04:55.892Z,99987.88
2022-11-03T08:07:23.839Z,99950.84
2022-11-03T08:09:52.787Z,99987.03
2022-11-03T08:12:21.301Z,99919.16
2022-11-03T08:14:49.564Z,99981.00
2022-11-03T08:17:17.642Z,99977.09
2022-11-03T08:19:45.721Z,99985.78
2022-11-03T08:22:14.871Z,99985.22
2022-11-03T08:24:43.048Z,99977.34
2022-11-03T08:27:11.558Z,99932.50
2022-11-03T08:29:39.586Z,99928.25
2022-11-03T08:32:08.044Z,99952.19
2022-11-03T08:34:36.055Z,99928.72
2022-11-03T08:37:04.091Z,99947.06
2022-11-03T08:39:31.978Z,99946.56
2022-11-03T08:42:01.224Z,99932.34
2022-11-03T08:44:29.200Z,99944.06
2022-11-03T08:46:57.073Z,99882.25
2022-11-03T08:49:25.313Z,99916.91
2022-11-03T08:51:53.320Z,99931.47
2022-11-03T08:54:21.189Z,99922.16
2022-11-03T08:56:49.867Z,99924.59
2022-11-03T08:59:18.382Z,99936.69
2022-11-03T09:01:46.844Z,99900.72
2022-11-03T09:04:15.759Z,99929.59
2022-11-03T09:06:44.054Z,99892.69
2022-11-03T09:11:59.920Z,99869.41
2022-11-03T09:14:27.794Z,99905.09
2022-11-03T09:16:55.933Z,99915.28
2022-11-03T09:19:25.058Z,99905.34
2022-11-03T09:21:53.745Z,99904.09
2022-11-03T09:24:21.793Z,99882.69
2022-11-03T09:26:49.840Z,99894.28
2022-11-03T09:29:17.904Z,99897.66
2022-11-03T09:31:45.804Z,99898.16
2022-11-03T09:34:14.922Z,99892.47
2022-11-03T09:36:42.934Z,99891.78
2022-11-03T09:39:10.856Z,99806.81
2022-11-03T09:41:57.936Z,99884.88
2022-11-03T09:44:27.607Z,99871.16
2022-11-03T09:46:58.456Z,99883.13
2022-11-03T09:49:31.104Z,99867.09
2022-11-03T09:52:02.099Z,99862.59
2022-11-03T09:54:31.186Z,99858.78
2022-11-03T09:57:11.772Z,99864.88
2022-11-03T09:59:49.077Z,99874.28
2022-11-03T10:02:30.705Z,99853.31
2022-11-03T10:05:00.493Z,99860.91
2022-11-03T10:07:31.310Z,99828.63
2022-11-03T10:10:01.621Z,99866.56
2022-11-03T10:12:35.898Z,99856.00
2022-11-03T10:15:04.167Z,99807.09
2022-11-03T10:17:32.297Z,99860.78
2022-11-03T10:20:02.218Z,99856.00
2022-11-03T10:22:30.461Z,99841.53
2022-11-03T10:25:38.860Z,99852.72
2022-11-03T10:28:27.134Z,99844.47
2022-11-03T10:31:13.704Z,99843.16
2022-11-03T10:33:53.170Z,99774.53
2022-11-03T10:36:20.959Z,99831.50
2022-11-03T10:38:49.288Z,99783.69
2022-11-03T10:41:20.773Z,99799.84
2022-11-03T10:44:19.702Z,99821.59
2022-11-03T10:47:02.479Z,99789.88
2022-11-03T10:49:37.716Z,99811.94
2022-11-03T10:52:26.546Z,99797.50
2022-11-03T10:54:58.357Z,99804.59
2022-11-03T10:57:27.680Z,99785.59
2022-11-03T10:59:56.107Z,99772.72
2022-11-03T11:02:32.293Z,99760.41
2022-11-03T11:05:09.066Z,99802.09
2022-11-03T11:07:41.517Z,99772.91
2022-11-03T11:10:28.456Z,99785.00
2022-11-03T11:13:19.003Z,99793.50
2022-11-03T11:15:56.064Z,99732.75
2022-11-03T11:18:29.753Z,99782.69
2022-11-03T11:21:22.562Z,99761.56
2022-11-03T11:23:52.832Z,99760.34
2022-11-03T11:26:33.635Z,99753.28
2022-11-03T11:29:11.194Z,99757.38
2022-11-03T11:31:45.229Z,99709.16
2022-11-03T11:34:18.841Z,99745.31
2022-11-03T11:36:55.750Z,99742.31
2022-11-03T11:39:26.282Z,99736.06
2022-11-03T11:42:21.077Z,99748.84
2022-11-03T11:44:57.162Z,99731.56
2022-11-03T11:47:45.502Z,99721.81
2022-11-03T11:50:25.490Z,99722.09
2022-11-03T11:53:08.164Z,99715.44
2022-11-03T11:55:51.123Z,99701.31
2022-11-03T11:58:36.579Z,99703.44
2022-11-03T12:01:20.978Z,99700.41
2022-11-03T12:03:50.079Z,99703.81
2022-11-03T12:06:18.146Z,99697.03
2022-11-03T12:08:46.067Z,99665.13
2022-11-03T12:11:14.256Z,99665.78
2022-11-03T12:13:53.985Z,99698.41
2022-11-03T12:16:28.692Z,99704.84
2022-11-03T12:18:58.944Z,99685.59
2022-11-03T12:21:48.935Z,99654.78
2022-11-03T12:24:32.324Z,99704.31
2022-11-03T12:27:01.688Z,99689.91
2022-11-03T12:29:30.269Z,99695.03
2022-11-03T12:31:58.128Z,99694.75
2022-11-03T12:34:26.321Z,99644.13
2022-11-03T12:36:56.392Z,99669.06
2022-11-03T12:39:25.246Z,99670.22
2022-11-03T12:41:53.921Z,99671.22
2022-11-03T12:44:21.964Z,99677.66
2022-11-03T12:46:49.873Z,99674.34
2022-11-03T12:49:17.920Z,99678.31
2022-11-03T12:51:46.014Z,99674.13
2022-11-03T12:54:13.924Z,99657.28
2022-11-03T12:56:41.974Z,99667.56
2022-11-03T12:59:10.239Z,99663.06
2022-11-03T13:01:39.852Z,99662.88
2022-11-03T13:04:08.554Z,99659.72
2022-11-03T13:06:36.458Z,99665.56
2022-11-03T13:09:04.436Z,99663.75
2022-11-03T13:11:51.482Z,99661.09
2022-11-03T13:14:19.538Z,99641.59
2022-11-03T13:16:47.638Z,99646.41
2022-11-03T13:19:15.665Z,99649.09
2022-11-03T13:21:43.759Z,99610.28
2022-11-03T13:24:11.786Z,99651.44
2022-11-03T13:26:39.904Z,99638.66
2022-11-03T13:29:08.229Z,99643.75
2022-11-03T13:31:37.045Z,99632.47
2022-11-03T13:34:04.978Z,99644.47
2022-11-03T13:36:32.857Z,99637.69
2022-11-03T13:39:00.932Z,99646.00
2022-11-03T13:41:28.738Z,99645.25
2022-11-03T13:43:56.580Z,99639.22
2022-11-03T13:46:24.733Z,99602.31
2022-11-03T13:51:40.586Z,99645.53
2022-11-03T13:59:45.965Z,99654.78
2022-11-03T14:05:04.385Z,99614.19
2022-11-03T14:07:33.658Z,99650.84
2022-11-03T14:10:03.872Z,99606.88
2022-11-03T14:12:32.432Z,99651.38
2022-11-03T14:15:09.552Z,99609.72
2022-11-03T14:17:40.472Z,99648.03
2022-11-03T14:20:12.366Z,99617.25
2022-11-03T14:22:40.885Z,99604.22
2022-11-03T14:25:09.812Z,99642.34
2022-11-03T14:27:37.789Z,99650.06
2022-11-03T14:30:06.907Z,99615.09
2022-11-03T14:32:35.150Z,99658.75
2022-11-03T14:35:03.411Z,99650.69
2022-11-03T14:37:31.581Z,99626.72
2022-11-03T14:39:59.639Z,99649.28
2022-11-03T14:42:27.569Z,99648.41
2022-11-03T14:44:55.812Z,99650.97
2022-11-03T14:47:25.680Z,99622.63
2022-11-03T14:49:53.640Z,99634.59
2022-11-03T14:52:21.443Z,99647.81
2022-11-03T14:54:50.232Z,99664.50
2022-11-03T14:57:18.062Z,99625.81
2022-11-03T14:59:50.540Z,99651.78
2022-11-03T15:02:21.211Z,99583.06
2022-11-03T15:04:49.324Z,99632.69
2022-11-03T15:07:17.264Z,99635.75
2022-11-03T15:09:45.485Z,99665.75
2022-11-03T15:12:13.377Z,99669.06
2022-11-03T15:14:41.280Z,99672.53
2022-11-03T15:17:09.495Z,99665.31
2022-11-03T15:19:37.491Z,99667.63
2022-11-03T15:22:05.520Z,99638.84
2022-11-03T15:27:23.047Z,99674.28
2022-11-03T15:29:51.183Z,99673.28
2022-11-03T15:32:19.080Z,99668.56
2022-11-03T15:34:46.998Z,99659.31
2022-11-03T15:37:15.933Z,99660.03
2022-11-03T15:39:43.930Z,99664.06
2022-11-03T15:42:11.851Z,99668.97
2022-11-03T15:44:40.912Z,99660.72
2022-11-03T15:47:08.973Z,99665.19
2022-11-03T15:49:37.155Z,99665.72
2022-11-03T15:52:05.349Z,99666.94
2022-11-03T15:54:33.998Z,99630.66
2022-11-03T15:57:04.741Z,99632.88
2022-11-03T15:59:32.736Z,99672.84
2022-11-03T16:02:08.656Z,99690.75
2022-11-03T16:04:48.817Z,99683.72
2022-11-03T16:07:16.776Z,99638.28
2022-11-03T16:09:44.726Z,99686.72
2022-11-03T16:12:12.752Z,99665.41
2022-11-03T16:14:43.931Z,99677.97
2022-11-03T16:17:12.390Z,99675.25
2022-11-03T16:19:40.316Z,99677.22
2022-11-03T16:22:08.740Z,99683.38
2022-11-03T16:24:37.057Z,99648.38
2022-11-03T16:27:05.025Z,99614.44
2022-11-03T16:29:33.180Z,99684.00
2022-11-03T16:32:01.639Z,99674.41
2022-11-03T16:34:30.304Z,99686.13
2022-11-03T16:36:58.731Z,99679.06
2022-11-03T16:39:27.129Z,99681.00
2022-11-03T16:41:55.290Z,99668.16
2022-11-03T16:44:24.702Z,99688.63
2022-11-03T16:46:52.762Z,99691.59
2022-11-03T16:49:20.810Z,99680.03
2022-11-03T16:51:48.778Z,99698.88
2022-11-03T16:54:17.032Z,99677.69
2022-11-03T16:56:45.023Z,99685.75
2022-11-03T16:59:13.148Z,99698.50
2022-11-03T17:01:41.567Z,99702.47
2022-11-03T17:04:09.602Z,99704.41
2022-11-03T17:06:37.757Z,99706.56
2022-11-03T17:09:05.861Z,99701.63
2022-11-03T17:11:36.900Z,99653.38
2022-11-03T17:14:13.806Z,99696.56
2022-11-03T17:16:45.513Z,99660.22
2022-11-03T17:19:16.677Z,99700.38
2022-11-03T17:21:44.708Z,99700.00
2022-11-03T17:24:13.533Z,99694.69
2022-11-03T17:27:07.984Z,99702.75
2022-11-03T17:29:42.916Z,99666.22
2022-11-03T17:32:25.225Z,99651.78
2022-11-03T17:34:54.625Z,99648.41
2022-11-03T17:37:24.566Z,99681.84
2022-11-03T17:39:53.114Z,99680.09
2022-11-03T17:42:26.286Z,99624.72
2022-11-03T17:44:57.858Z,99628.16
2022-11-03T17:47:25.994Z,99657.75
2022-11-03T17:49:53.936Z,99606.81
2022-11-03T17:52:30.718Z,99677.28
2022-11-03T17:55:01.970Z,99659.44
2022-11-03T17:57:30.627Z,99650.56
2022-11-03T18:00:01.582Z,99641.41
2022-11-03T18:02:32.533Z,99664.06
2022-11-03T18:05:31.552Z,99627.38
2022-11-03T18:08:02.389Z,99609.63
2022-11-03T18:10:38.085Z,99647.53
2022-11-03T18:13:34.489Z,99640.13
2022-11-03T18:16:12.590Z,99625.81
2022-11-03T18:18:44.084Z,99633.31
2022-11-03T18:21:18.925Z,99631.41
2022-11-03T18:23:47.125Z,99617.22
2022-11-03T18:26:27.431Z,99645.91
2022-11-03T18:28:55.660Z,99634.56
2022-11-03T18:31:43.219Z,99621.41
2022-11-03T18:34:23.053Z,99633.94
2022-11-03T18:36:52.995Z,99552.25
2022-11-03T18:39:26.587Z,99637.97
2022-11-03T18:41:55.849Z,99553.94
2022-11-03T18:44:30.981Z,99600.09
2022-11-03T18:46:59.157Z,99625.06
2022-11-03T18:49:27.743Z,99616.00
2022-11-03T18:52:03.946Z,99610.56
2022-11-03T18:54:35.333Z,99617.19
2022-11-03T18:57:04.533Z,99605.50
2022-11-03T18:59:37.846Z,99628.16
2022-11-03T19:02:24.168Z,99616.56
2022-11-03T19:04:52.572Z,99628.72
2022-11-03T19:07:29.246Z,99622.91
2022-11-03T19:09:58.314Z,99573.94
2022-11-03T19:12:26.387Z,99620.69
2022-11-03T19:14:55.116Z,99627.91
2022-11-03T19:17:25.607Z,99608.47
2022-11-03T19:19:54.035Z,99618.81
2022-11-03T19:22:23.706Z,99531.06
2022-11-03T19:24:52.418Z,99608.91
2022-11-03T19:27:26.285Z,99608.28
2022-11-03T19:29:56.027Z,99601.00
2022-11-03T19:32:31.787Z,99559.94
2022-11-03T19:35:32.991Z,99597.63
2022-11-03T19:38:13.833Z,99594.25
2022-11-03T19:41:02.678Z,99589.94
2022-11-03T19:43:34.777Z,99588.28
2022-11-03T19:46:04.929Z,99567.50
2022-11-03T19:48:34.531Z,99545.47
2022-11-03T19:51:04.974Z,99530.53
2022-11-03T19:53:33.381Z,99581.41
2022-11-03T19:56:01.620Z,99575.94
2022-11-03T19:58:30.323Z,99578.66
2022-11-03T20:01:00.044Z,99574.34
2022-11-03T20:03:30.095Z,99583.09
2022-11-03T20:05:58.893Z,99587.41
2022-11-03T20:08:31.645Z,99524.50
2022-11-03T20:11:00.689Z,99514.50
2022-11-03T20:13:39.485Z,99566.63
2022-11-03T20:16:16.463Z,99488.25
2022-11-03T20:18:44.783Z,99558.16
2022-11-03T20:21:18.023Z,99555.00
2022-11-03T20:23:48.703Z,99557.00
2022-11-03T20:26:24.231Z,99498.00
2022-11-03T20:28:54.633Z,99540.56
2022-11-03T20:31:23.292Z,99497.69
2022-11-03T20:33:51.540Z,99549.47
2022-11-03T20:36:20.887Z,99550.31
2022-11-03T20:38:59.726Z,99538.09
2022-11-03T20:41:30.478Z,99549.19
2022-11-03T20:43:59.830Z,99546.63
2022-11-03T20:46:32.882Z,99549.81
2022-11-03T20:49:02.592Z,99540.94
2022-11-03T20:51:35.266Z,99527.91
2022-11-03T20:54:12.652Z,99526.63
2022-11-03T20:56:41.548Z,99517.44
2022-11-03T20:59:18.052Z,99507.44
2022-11-03T21:01:47.139Z,99520.69
2022-11-03T21:04:18.770Z,99502.28
2022-11-03T21:06:47.324Z,99504.22
2022-11-03T21:09:20.327Z,99516.31
2022-11-03T21:12:04.154Z,99509.97
2022-11-03T21:14:33.468Z,99513.25
2022-11-03T21:17:20.016Z,99489.13
2022-11-03T21:20:02.324Z,99505.03
2022-11-03T21:22:52.505Z,99498.63
2022-11-03T21:25:24.448Z,99498.09
2022-11-03T21:27:54.015Z,99476.28
2022-11-03T21:30:23.408Z,99488.38
2022-11-03T21:32:51.888Z,99485.88
2022-11-03T21:35:22.257Z,99480.59
2022-11-03T21:37:50.660Z,99472.59
2022-11-03T21:40:18.782Z,99455.84
2022-11-03T21:43:05.523Z,99457.97
2022-11-03T21:45:33.592Z,99472.19
2022-11-03T21:48:21.203Z,99444.69
2022-11-03T21:50:49.945Z,99435.88
2022-11-03T21:53:18.381Z,99455.44
2022-11-03T21:55:50.226Z,99469.31
2022-11-03T21:58:18.308Z,99469.53
2022-11-03T22:00:47.443Z,99459.66
2022-11-03T22:03:17.003Z,99461.97
2022-11-03T22:05:45.529Z,99472.19
2022-11-03T22:08:13.677Z,99469.13
2022-11-03T22:10:42.109Z,99430.59
2022-11-03T22:13:11.045Z,99414.47
2022-11-03T22:15:57.802Z,99459.63
2022-11-03T22:18:26.537Z,99399.03
2022-11-03T22:21:16.077Z,99455.00
2022-11-03T22:24:13.472Z,99443.97
2022-11-03T22:26:56.847Z,99414.81
2022-11-03T22:29:43.423Z,99443.88
2022-11-03T22:32:15.264Z,99438.19
2022-11-03T22:35:02.071Z,99386.09
2022-11-03T22:40:16.614Z,99412.94
2022-11-03T22:43:03.692Z,99425.28
2022-11-03T22:45:50.582Z,99421.09
2022-11-03T22:48:23.623Z,99422.44
2022-11-03T22:51:09.076Z,99430.34
2022-11-03T22:53:56.695Z,99408.22
2022-11-03T22:56:27.360Z,99431.91
2022-11-03T22:58:55.686Z,99415.78
2022-11-03T23:01:29.450Z,99418.66
2022-11-03T23:03:58.165Z,99421.50
2022-11-03T23:06:29.395Z,99340.22
2022-11-03T23:08:57.675Z,99417.28
2022-11-03T23:11:31.025Z,99411.72
2022-11-03T23:14:01.023Z,99393.06
2022-11-03T23:16:55.418Z,99351.50
2022-11-03T23:19:42.011Z,99351.41
2022-11-03T23:22:09.841Z,99391.31
2022-11-03T23:24:56.602Z,99342.50
2022-11-03T23:27:24.595Z,99378.13
2022-11-03T23:29:52.610Z,99301.16
2022-11-03T23:32:20.781Z,99377.56
2022-11-03T23:34:48.651Z,99386.78
2022-11-03T23:37:16.632Z,99390.44
2022-11-03T23:39:44.904Z,99350.25
2022-11-03T23:42:14.285Z,99390.00
2022-11-03T23:45:00.980Z,99374.41
2022-11-03T23:47:47.413Z,99373.22
2022-11-03T23:50:15.503Z,99335.00
2022-11-03T23:52:43.378Z,99354.00
2022-11-03T23:55:11.155Z,99293.75
2022-11-03T23:58:00.686Z,99358.00
